Time;durP1;ratioP1;P1;durP2;ratioP2;P2;SDS_P1;SDS_P2;PMS_P1;PMS_P2;Temp;Humidity;BMP_temperature;BMP_pressure;BME280_temperature;BME280_humidity;BME280_pressure;Samples;Min_cycle;Max_cycle;Signal;HPM_P1;HPM_P2
2021/12/06 06:09:10;;;;;;;13.43;10.50;;;;;;;-145.42;43.84;46198.97;5009288;28;20615;-38
2021/12/06 06:11:36;;;;;;;13.00;10.18;;;;;;;-145.42;44.22;46227.97;5028705;28;20042;-45
2021/12/06 06:14:04;;;;;;;15.80;9.80;;;;;;;-145.42;44.08;46214.44;5032517;28;20064;-40
2021/12/06 06:16:35;;;;;;;11.57;9.98;;;;;;;-145.42;44.11;46179.66;5025303;28;20679;-39
2021/12/06 06:19:00;;;;;;;12.75;9.88;;;;;;;-145.42;44.18;46208.66;5029811;28;20049;-44
2021/12/06 06:21:26;;;;;;;13.13;9.32;;;;;;;-145.42;44.22;46233.78;5028560;28;20057;-39
2021/12/06 06:23:52;;;;;;;14.02;10.02;;;;;;;-145.42;44.27;46183.50;5029554;28;20041;-43
2021/12/06 06:26:18;;;;;;;11.45;9.57;;;;;;;-145.42;44.36;46258.91;5032490;28;20037;-44
2021/12/06 06:28:44;;;;;;;11.23;9.20;;;;;;;-145.42;44.51;46255.03;5026407;28;20176;-42
2021/12/06 06:31:10;;;;;;;11.20;9.57;;;;;;;-145.42;44.69;46260.84;5033365;28;20045;-45
2021/12/06 06:33:36;;;;;;;11.80;9.90;;;;;;;-145.42;44.80;46249.25;5026031;28;20033;-43
2021/12/06 06:36:02;;;;;;;10.63;8.52;;;;;;;-145.42;44.58;46218.31;5029062;28;20049;-38
2021/12/06 06:38:28;;;;;;;12.75;9.55;;;;;;;-145.42;44.66;46220.25;5029861;28;20117;-39
2021/12/06 06:40:53;;;;;;;10.10;8.90;;;;;;;-145.42;44.69;46249.25;5025843;28;20399;-47
2021/12/06 06:43:20;;;;;;;9.90;8.98;;;;;;;-145.42;45.18;46226.03;5032403;28;20041;-44
2021/12/06 06:45:46;;;;;;;10.75;8.75;;;;;;;-145.42;44.76;46183.50;5026137;28;20046;-39
2021/12/06 06:48:12;;;;;;;10.90;9.02;;;;;;;-145.42;44.83;46214.44;5030362;28;20124;-42
2021/12/06 06:50:39;;;;;;;10.23;8.35;;;;;;;-145.42;45.01;46227.97;5028398;28;20126;-44
2021/12/06 06:53:05;;;;;;;11.30;9.10;;;;;;;-145.42;44.74;46229.91;5026795;28;20125;-45
2021/12/06 06:55:31;;;;;;;11.55;8.38;;;;;;;-145.42;45.20;46264.72;5029551;28;20137;-45
2021/12/06 06:57:57;;;;;;;10.63;8.82;;;;;;;-145.42;44.90;46212.50;5026529;28;20124;-41
2021/12/06 07:00:30;;;;;;;10.40;8.50;;;;;;;-145.42;44.90;46212.50;5023202;28;20562;-40
2021/12/06 07:02:56;;;;;;;10.77;8.55;;;;;;;-145.42;44.77;46229.91;5027980;28;20129;-45
2021/12/06 07:05:23;;;;;;;10.90;8.60;;;;;;;-145.42;44.78;46206.72;5027538;28;20037;-38
2021/12/06 07:07:49;;;;;;;9.50;8.52;;;;;;;-145.42;44.69;46270.50;5027557;28;20046;-40
2021/12/06 07:10:15;;;;;;;10.75;8.48;;;;;;;-145.42;44.20;46249.25;5026656;28;20125;-41
2021/12/06 07:12:48;;;;;;;9.05;7.78;;;;;;;-145.42;44.53;46227.97;5028322;28;20037;-44
2021/12/06 07:15:17;;;;;;;9.48;7.97;;;;;;;-145.42;44.51;46220.25;5023995;28;20087;-44
2021/12/06 07:17:44;;;;;;;12.55;8.73;;;;;;;-145.42;44.41;46245.38;5025043;28;20037;-45
2021/12/06 07:20:12;;;;;;;9.88;8.02;;;;;;;-145.42;44.22;46224.09;5020476;28;20385;-43
2021/12/06 07:22:38;;;;;;;9.52;8.07;;;;;;;-145.42;44.11;46229.91;5013637;28;20128;-46
2021/12/06 07:25:05;;;;;;;8.95;7.95;;;;;;;-145.42;44.02;46241.50;5017112;28;20049;-46
2021/12/06 07:27:31;;;;;;;9.27;7.70;;;;;;;-145.42;44.43;46218.31;5014531;28;20120;-41
2021/12/06 07:29:57;;;;;;;9.60;8.25;;;;;;;-145.42;44.66;46214.44;5012734;28;20053;-40
2021/12/06 07:32:23;;;;;;;10.55;7.93;;;;;;;-145.42;44.62;46237.66;5013572;28;20137;-40
2021/12/06 07:34:51;;;;;;;10.70;8.63;;;;;;;-145.42;47.39;46216.38;5011063;28;20496;-42
2021/12/06 07:37:17;;;;;;;9.30;7.70;;;;;;;-145.42;45.54;46247.31;5017919;28;20029;-42
2021/12/06 07:39:44;;;;;;;11.05;8.18;;;;;;;-145.42;44.76;46256.97;5013953;28;20125;-45
2021/12/06 07:42:12;;;;;;;8.65;7.70;;;;;;;-145.42;44.87;46233.78;5013800;28;20145;-45
2021/12/06 07:44:40;;;;;;;10.02;7.82;;;;;;;-145.42;44.86;46237.66;5013745;28;20145;-43
2021/12/06 07:47:07;;;;;;;11.88;8.00;;;;;;;-145.42;44.89;46227.97;5013412;28;20112;-44
2021/12/06 07:49:33;;;;;;;8.40;7.35;;;;;;;-145.42;44.94;46226.03;5015193;28;20144;-44
2021/12/06 07:51:59;;;;;;;8.77;7.78;;;;;;;-145.42;45.04;46262.78;5010852;28;20523;-46
2021/12/06 07:54:24;;;;;;;9.98;7.57;;;;;;;-145.42;45.06;46226.03;5015432;28;20057;-47
2021/12/06 07:56:51;;;;;;;8.60;7.53;;;;;;;-145.42;45.12;46241.50;5015900;28;20061;-46
2021/12/06 07:59:16;;;;;;;11.73;8.27;;;;;;;-145.42;45.15;46237.66;5013020;28;20045;-45
2021/12/06 08:01:42;;;;;;;8.98;7.22;;;;;;;-145.42;45.17;46227.97;5013964;28;20563;-43
2021/12/06 08:04:08;;;;;;;8.05;7.22;;;;;;;-145.42;45.22;46218.31;5014368;28;20041;-44
2021/12/06 08:06:34;;;;;;;8.43;7.50;;;;;;;-145.42;45.38;46224.09;5013594;28;20049;-43
2021/12/06 08:09:01;;;;;;;8.85;7.47;;;;;;;-145.42;45.47;46229.91;5016161;28;20045;-44
2021/12/06 08:11:26;;;;;;;8.68;7.20;;;;;;;-145.42;45.41;46249.25;5011179;28;20105;-39
2021/12/06 08:13:54;;;;;;;8.30;6.72;;;;;;;-145.42;45.45;46210.56;5014546;28;20125;-43
2021/12/06 08:16:24;;;;;;;8.32;7.03;;;;;;;-145.42;45.52;46229.91;5014319;28;20042;-43
2021/12/06 08:18:50;;;;;;;9.70;7.40;;;;;;;-145.42;45.57;46253.09;5012553;28;20124;-43
2021/12/06 08:21:20;;;;;;;9.43;7.05;;;;;;;-145.42;45.55;46181.56;5016022;28;20485;-43
2021/12/06 08:23:49;;;;;;;9.63;7.47;;;;;;;-145.42;45.65;46200.91;5009766;28;20129;-43
2021/12/06 08:26:16;;;;;;;10.30;6.93;;;;;;;-145.42;45.64;46216.38;5016669;28;20040;-43
2021/12/06 08:28:43;;;;;;;9.77;7.32;;;;;;;-145.42;45.65;46224.09;5009709;28;20136;-42
2021/12/06 08:31:09;;;;;;;8.32;7.18;;;;;;;-145.42;45.71;46229.91;5013197;28;20133;-42
2021/12/06 08:33:37;;;;;;;8.43;7.28;;;;;;;-145.42;45.88;46229.91;5013495;28;20500;-43
2021/12/06 08:36:05;;;;;;;8.55;7.28;;;;;;;-145.42;45.81;46195.09;5011422;28;20841;-44
2021/12/06 08:38:32;;;;;;;8.55;6.68;;;;;;;-145.42;45.92;46235.72;5014325;28;20140;-43
2021/12/06 08:41:00;;;;;;;7.65;6.45;;;;;;;-145.42;45.97;46253.09;5009506;28;20045;-45
2021/12/06 08:43:26;;;;;;;8.00;6.65;;;;;;;-145.42;46.08;46233.78;5011790;28;20137;-44
2021/12/06 08:46:04;;;;;;;8.57;6.70;;;;;;;-145.42;45.91;46218.31;5012292;28;20595;-43
2021/12/06 08:48:35;;;;;;;9.13;6.90;;;;;;;-145.42;45.63;46210.56;5009661;28;20128;-44
2021/12/06 08:51:06;;;;;;;8.48;6.70;;;;;;;-145.42;45.73;46233.78;5014567;28;20037;-44
2021/12/06 08:53:32;;;;;;;7.82;6.93;;;;;;;-145.42;45.48;46227.97;5011023;28;20052;-44
2021/12/06 08:55:58;;;;;;;8.75;7.18;;;;;;;-145.42;45.50;46216.38;5014875;28;20124;-44
2021/12/06 08:58:24;;;;;;;7.28;6.57;;;;;;;-145.42;45.48;46216.38;5011994;28;20703;-40
2021/12/06 09:00:51;;;;;;;7.28;6.57;;;;;;;-145.42;45.49;46227.97;5006323;28;20038;-40
2021/12/06 09:03:17;;;;;;;8.07;6.50;;;;;;;-145.42;45.47;46253.09;5000117;28;20068;-39
2021/12/06 09:05:46;;;;;;;6.85;6.15;;;;;;;-145.42;45.49;46247.31;5002110;28;20508;-48
2021/12/06 09:08:13;;;;;;;8.05;6.68;;;;;;;-145.42;45.15;46212.50;5015031;28;20136;-48
2021/12/06 09:10:39;;;;;;;7.70;6.90;;;;;;;-145.42;45.30;46227.97;5012375;28;20038;-45
2021/12/06 09:13:06;;;;;;;7.22;6.22;;;;;;;-145.42;45.26;46220.25;5012416;28;20121;-46
2021/12/06 09:15:32;;;;;;;7.93;7.05;;;;;;;-145.42;45.31;46214.44;5014131;28;20616;-42
2021/12/06 09:17:59;;;;;;;6.80;6.13;;;;;;;-145.42;45.27;46220.25;5011440;28;20679;-42
2021/12/06 09:20:34;;;;;;;6.65;5.95;;;;;;;-145.42;45.28;46237.66;5015248;28;20404;-41
2021/12/06 09:23:01;;;;;;;7.28;6.47;;;;;;;-145.42;45.29;46272.44;5012982;28;20038;-42
2021/12/06 09:25:28;;;;;;;8.75;6.55;;;;;;;-145.42;45.31;46214.44;5013449;28;20137;-41
2021/12/06 09:27:54;;;;;;;6.70;6.00;;;;;;;-145.42;45.37;46249.25;5014561;28;20065;-40
2021/12/06 09:30:24;;;;;;;7.32;6.22;;;;;;;-145.42;45.31;46227.97;5011913;28;20555;-42
2021/12/06 09:32:50;;;;;;;9.00;7.28;;;;;;;-145.42;45.29;46233.78;5012340;28;20868;-43
2021/12/06 09:35:23;;;;;;;8.20;6.00;;;;;;;-145.42;44.98;46253.09;5012923;28;20034;-42
2021/12/06 09:37:48;;;;;;;7.43;6.65;;;;;;;-145.42;45.10;46233.78;5011408;28;20760;-42
2021/12/06 09:40:15;;;;;;;7.43;6.65;;;;;;;-145.42;45.09;46208.66;5015110;28;20065;-42
2021/12/06 09:42:45;;;;;;;8.48;5.90;;;;;;;-145.42;44.80;46216.38;5009518;28;20108;-45
2021/12/06 09:45:16;;;;;;;10.93;6.03;;;;;;;-145.42;45.05;46202.84;5015702;28;20607;-45
2021/12/06 09:47:50;;;;;;;7.22;6.47;;;;;;;-145.42;45.09;46206.72;5009514;28;20495;-43
2021/12/06 09:50:16;;;;;;;7.30;6.07;;;;;;;-145.42;44.94;46247.31;5014472;28;20041;-39
2021/12/06 09:52:42;;;;;;;7.18;6.30;;;;;;;-145.42;45.04;46195.09;5012181;28;20136;-44
2021/12/06 09:55:09;;;;;;;7.00;5.85;;;;;;;-145.42;44.69;46260.84;5010873;28;20128;-43
2021/12/06 09:57:36;;;;;;;8.23;6.13;;;;;;;-145.42;44.85;46255.03;5012901;28;20037;-45
2021/12/06 10:00:05;;;;;;;16.75;6.43;;;;;;;-145.42;44.84;46226.03;5007604;28;20141;-47
2021/12/06 10:02:31;;;;;;;8.55;6.13;;;;;;;-145.42;44.55;46241.50;5012821;28;20124;-47
2021/12/06 10:04:57;;;;;;;6.93;6.15;;;;;;;-145.42;44.23;46243.44;5009457;28;20432;-48
2021/12/06 10:07:26;;;;;;;9.32;6.07;;;;;;;-145.42;44.55;46260.84;5011915;28;20130;-41
2021/12/06 10:09:53;;;;;;;6.90;5.95;;;;;;;-145.42;44.66;46262.78;5012438;28;20117;-40
2021/12/06 10:12:21;;;;;;;7.53;5.78;;;;;;;-145.42;44.91;46249.25;5010812;28;20033;-44
2021/12/06 10:14:48;;;;;;;6.60;5.90;;;;;;;-145.42;44.52;46249.25;5011652;28;20141;-43
2021/12/06 10:17:16;;;;;;;6.78;6.00;;;;;;;-145.42;44.63;46214.44;5012463;28;20140;-43
2021/12/06 10:19:44;;;;;;;6.72;6.03;;;;;;;-145.42;44.48;46210.56;5011258;28;20573;-41
2021/12/06 10:22:10;;;;;;;6.90;6.18;;;;;;;-145.42;44.53;46262.78;5015364;28;20546;-41
2021/12/06 10:24:36;;;;;;;5.57;5.07;;;;;;;-145.42;44.58;46233.78;5012179;28;20045;-41
2021/12/06 10:27:08;;;;;;;7.65;5.40;;;;;;;-145.42;44.73;46255.03;5014356;28;20089;-43
2021/12/06 10:29:38;;;;;;;7.20;5.63;;;;;;;-145.42;44.71;46249.25;5011962;28;20161;-48
2021/12/06 10:32:14;;;;;;;8.15;5.53;;;;;;;-145.42;44.77;46249.25;5004573;28;20145;-43
2021/12/06 10:34:49;;;;;;;6.03;5.43;;;;;;;-145.42;44.50;46210.56;5013258;28;20109;-41
2021/12/06 10:37:45;;;;;;;6.82;5.78;;;;;;;-145.42;44.67;46233.78;5011773;28;20111;-48
2021/12/06 10:40:19;;;;;;;8.15;6.20;;;;;;;-145.42;44.73;46284.03;5015443;28;20132;-45
2021/12/06 10:42:48;;;;;;;6.45;5.47;;;;;;;-145.42;44.69;46227.97;5010010;28;20524;-46
2021/12/06 10:45:26;;;;;;;7.18;5.50;;;;;;;-145.42;44.38;46239.56;5015541;28;20056;-49
2021/12/06 10:48:13;;;;;;;7.47;5.82;;;;;;;-145.42;44.50;46245.38;5011208;28;20045;-48
2021/12/06 10:50:46;;;;;;;6.78;5.32;;;;;;;-145.42;44.59;46256.97;5011904;28;20856;-42
2021/12/06 10:53:13;;;;;;;6.90;6.20;;;;;;;-145.42;44.38;46229.91;5008466;28;20100;-50
2021/12/06 10:55:40;;;;;;;5.93;5.32;;;;;;;-145.42;44.48;46237.66;5012601;28;20492;-39
2021/12/06 10:58:11;;;;;;;6.78;5.90;;;;;;;-145.42;44.22;46245.38;5015341;28;20048;-45
2021/12/06 11:00:56;;;;;;;6.55;5.63;;;;;;;-145.42;44.27;46226.03;5013339;28;20120;-44
2021/12/06 11:03:24;;;;;;;6.38;5.60;;;;;;;-145.42;44.46;46239.56;5012936;28;20099;-41
2021/12/06 11:05:55;;;;;;;6.07;5.40;;;;;;;-145.42;44.46;46220.25;5014348;28;20053;-44
2021/12/06 11:08:22;;;;;;;8.95;5.47;;;;;;;-145.42;44.52;46251.19;5016375;28;20455;-42
2021/12/06 11:11:04;;;;;;;6.47;5.57;;;;;;;-145.42;44.69;46214.44;5014688;28;20041;-44
2021/12/06 11:13:34;;;;;;;5.97;5.40;;;;;;;-145.42;44.87;46241.50;5013081;28;20033;-38
2021/12/06 11:16:27;;;;;;;7.50;5.50;;;;;;;-145.42;44.75;46253.09;5016979;28;20039;-46
2021/12/06 11:19:05;;;;;;;6.13;4.75;;;;;;;-145.42;44.64;46212.50;5012307;28;20045;-38
2021/12/06 11:21:43;;;;;;;5.43;4.93;;;;;;;-145.42;44.69;46241.50;5009064;28;20041;-42
2021/12/06 11:24:13;;;;;;;5.78;5.28;;;;;;;-145.42;44.46;46224.09;5010388;28;20100;-40
2021/12/06 11:26:52;;;;;;;5.50;4.82;;;;;;;-145.42;44.52;46233.78;5011001;28;20424;-40
2021/12/06 11:29:28;;;;;;;5.85;5.25;;;;;;;-145.42;44.57;46212.50;5015358;28;20112;-47
